Time;durP1;ratioP1;P1;durP2;ratioP2;P2;SDS_P1;SDS_P2;PMS_P1;PMS_P2;Temp;Humidity;BMP_temperature;BMP_pressure;BME280_temperature;BME280_humidity;BME280_pressure;Samples;Min_cycle;Max_cycle;Signal;HPM_P1;HPM_P2
2023/05/31 00:01:05;;;;;;;4.25;2.70;;;;;;;-146.27;89.78;83047.16;5041836;28;20465;-74
2023/05/31 00:03:31;;;;;;;6.55;3.33;;;;;;;-146.27;89.95;83075.28;5039558;28;20029;-74
2023/05/31 00:05:56;;;;;;;8.52;3.67;;;;;;;-146.27;89.62;83053.16;5038463;28;20020;-74
2023/05/31 00:08:22;;;;;;;6.93;3.40;;;;;;;-146.27;90.09;83091.34;5051012;28;20033;-73
2023/05/31 00:10:47;;;;;;;3.83;3.33;;;;;;;-146.27;90.94;83071.25;5043657;28;20071;-69
2023/05/31 00:13:12;;;;;;;5.82;3.10;;;;;;;-146.27;90.88;83067.25;5052859;28;20064;-71
2023/05/31 00:15:38;;;;;;;4.97;2.80;;;;;;;-146.27;90.84;83063.22;5046319;28;20021;-71
2023/05/31 00:18:03;;;;;;;4.10;2.90;;;;;;;-146.27;90.91;83069.25;5051247;28;20037;-70
2023/05/31 00:20:29;;;;;;;7.45;3.50;;;;;;;-146.27;90.71;83071.25;5042362;28;20067;-69
2023/05/31 00:22:54;;;;;;;8.32;4.30;;;;;;;-146.27;90.72;83051.16;5040995;28;20464;-68
2023/05/31 00:25:20;;;;;;;6.00;3.30;;;;;;;-146.27;90.80;83067.25;5044339;28;20476;-69
2023/05/31 00:27:45;;;;;;;5.97;4.22;;;;;;;-146.27;90.90;83057.19;5038160;28;20120;-70
2023/05/31 00:30:11;;;;;;;6.00;3.67;;;;;;;-146.27;90.72;83059.19;5044530;28;20037;-70
2023/05/31 00:32:37;;;;;;;5.72;3.60;;;;;;;-146.27;91.56;83079.28;5039333;28;20063;-70
2023/05/31 00:35:03;;;;;;;11.57;4.13;;;;;;;-146.27;90.68;83049.16;5046798;28;20387;-70
2023/05/31 00:37:28;;;;;;;7.90;3.83;;;;;;;-146.27;90.28;83069.25;5041956;28;20477;-69
2023/05/31 00:39:53;;;;;;;7.53;4.05;;;;;;;-146.27;90.37;83073.25;5043411;28;20024;-69
2023/05/31 00:42:19;;;;;;;5.28;3.17;;;;;;;-146.27;90.60;83095.38;5057297;28;20405;-70
2023/05/31 00:44:44;;;;;;;6.53;4.28;;;;;;;-146.27;90.72;83101.38;5050957;28;20435;-69
2023/05/31 00:47:10;;;;;;;10.55;4.40;;;;;;;-146.27;90.45;83067.25;5045654;28;20036;-69
2023/05/31 00:49:35;;;;;;;10.30;3.90;;;;;;;-146.27;90.08;83059.19;5051712;28;20028;-69
2023/05/31 00:52:01;;;;;;;9.63;4.30;;;;;;;-146.27;90.29;83127.50;5057776;28;20020;-69
2023/05/31 00:54:27;;;;;;;6.90;4.20;;;;;;;-146.27;90.56;83093.34;5047282;28;20037;-69
2023/05/31 00:56:54;;;;;;;6.22;3.80;;;;;;;-146.27;90.43;83091.34;5062985;28;20058;-68
2023/05/31 00:59:20;;;;;;;9.10;4.05;;;;;;;-146.27;90.10;83123.50;5039086;28;20396;-70
2023/05/31 01:01:45;;;;;;;7.93;4.13;;;;;;;-146.27;89.96;83115.47;5044424;28;20017;-72
2023/05/31 01:04:11;;;;;;;7.82;4.28;;;;;;;-146.27;90.45;83087.31;5049484;28;20021;-70
2023/05/31 01:06:39;;;;;;;7.75;4.03;;;;;;;-146.27;90.11;83099.38;5049239;28;20021;-71
2023/05/31 01:09:07;;;;;;;15.00;3.90;;;;;;;-146.27;89.69;83019.03;5062001;28;20085;-70
2023/05/31 01:12:15;;;;;;;8.68;4.32;;;;;;;-146.27;89.78;83089.34;5044851;28;20094;-69
2023/05/31 01:15:09;;;;;;;7.82;4.15;;;;;;;-146.27;90.00;83099.38;5040878;28;20027;-69
2023/05/31 01:17:55;;;;;;;9.00;4.67;;;;;;;-146.27;90.09;83115.47;5034006;28;20037;-69
2023/05/31 01:20:24;;;;;;;6.15;4.00;;;;;;;-146.27;90.20;83095.38;5041535;28;20366;-69
2023/05/31 01:22:50;;;;;;;9.02;4.35;;;;;;;-146.27;90.53;83139.56;5049662;28;20016;-69
2023/05/31 01:25:36;;;;;;;9.20;4.00;;;;;;;-146.27;90.35;83129.53;5062040;28;20036;-69
2023/05/31 01:28:07;;;;;;;8.20;3.88;;;;;;;-146.27;91.13;83111.44;5044742;28;20130;-69
2023/05/31 01:30:35;;;;;;;10.43;4.65;;;;;;;-146.27;90.79;83163.69;5050886;28;20497;-69
2023/05/31 01:33:01;;;;;;;6.88;4.00;;;;;;;-146.27;90.86;83107.41;5045002;28;20501;-69
2023/05/31 01:35:27;;;;;;;6.30;3.85;;;;;;;-146.27;90.80;83167.69;5030469;28;20037;-69
2023/05/31 01:37:52;;;;;;;8.52;4.28;;;;;;;-146.27;91.34;83163.69;5029189;28;20083;-70
2023/05/31 01:40:18;;;;;;;8.02;4.32;;;;;;;-146.27;91.02;83171.72;5044612;28;20037;-68
2023/05/31 01:42:46;;;;;;;10.32;3.92;;;;;;;-146.27;90.89;83157.66;5048222;28;20083;-70
2023/05/31 01:45:14;;;;;;;7.38;3.70;;;;;;;-146.27;90.70;83155.63;5047857;28;20025;-70
2023/05/31 01:47:42;;;;;;;9.13;4.05;;;;;;;-146.27;91.26;83199.84;5040781;28;20497;-69
2023/05/31 01:50:10;;;;;;;9.13;3.83;;;;;;;-146.27;91.04;83173.72;5037001;28;20384;-69
2023/05/31 01:52:36;;;;;;;8.10;3.95;;;;;;;-146.27;91.24;83167.69;5064868;28;20024;-70
2023/05/31 01:55:02;;;;;;;9.32;4.28;;;;;;;-146.27;91.38;83159.66;5048632;28;20031;-70
2023/05/31 01:57:31;;;;;;;7.55;3.65;;;;;;;-146.27;91.32;83171.72;5042608;28;20159;-69
2023/05/31 01:59:59;;;;;;;7.10;4.00;;;;;;;-146.27;91.29;83145.59;5029268;28;20049;-68
2023/05/31 02:02:26;;;;;;;5.22;3.80;;;;;;;-146.27;91.29;83179.75;5046584;28;20021;-69
2023/05/31 02:05:04;;;;;;;9.35;4.43;;;;;;;-146.27;91.20;83171.72;5044988;28;20056;-70
2023/05/31 02:07:29;;;;;;;7.22;3.88;;;;;;;-146.27;91.18;83171.72;5050560;28;20052;-70
2023/05/31 02:09:54;;;;;;;6.45;4.05;;;;;;;-146.27;91.31;83217.94;5045075;28;20049;-70
2023/05/31 02:12:20;;;;;;;6.40;3.90;;;;;;;-146.27;91.63;83183.78;5051826;28;20056;-70
2023/05/31 02:14:45;;;;;;;10.73;3.92;;;;;;;-146.27;91.22;83171.72;5046022;28;20487;-69
2023/05/31 02:17:13;;;;;;;8.27;4.03;;;;;;;-146.27;91.31;83191.81;5042654;28;20461;-69
2023/05/31 02:19:40;;;;;;;6.25;3.97;;;;;;;-146.27;91.31;83173.72;5053440;28;20025;-71
2023/05/31 02:22:07;;;;;;;6.53;3.72;;;;;;;-146.27;91.32;83215.91;5047309;28;20675;-70
2023/05/31 02:24:32;;;;;;;8.05;4.15;;;;;;;-146.27;91.61;83197.84;5047816;28;20021;-70
2023/05/31 02:26:58;;;;;;;9.00;3.83;;;;;;;-146.27;91.96;83191.81;5038866;28;20031;-70
2023/05/31 02:29:23;;;;;;;11.02;4.32;;;;;;;-146.27;91.94;83215.91;5040788;28;20033;-70
2023/05/31 02:31:48;;;;;;;9.02;4.22;;;;;;;-146.27;91.79;83242.03;5045477;28;20126;-70
2023/05/31 02:34:15;;;;;;;6.88;3.63;;;;;;;-146.27;92.03;83242.03;5052377;28;20061;-70
2023/05/31 02:36:41;;;;;;;12.98;4.93;;;;;;;-146.27;91.71;83207.88;5052587;28;20095;-70
2023/05/31 02:39:07;;;;;;;8.02;4.35;;;;;;;-146.27;92.39;83238.03;5049501;28;20032;-70
2023/05/31 02:41:32;;;;;;;9.07;3.63;;;;;;;-146.27;92.12;83217.94;5043400;28;20128;-71
2023/05/31 02:43:57;;;;;;;8.73;4.18;;;;;;;-146.27;92.27;83268.16;5051765;28;20056;-70
2023/05/31 02:46:23;;;;;;;6.43;4.22;;;;;;;-146.27;92.18;83215.91;5052284;28;20021;-70
2023/05/31 02:48:48;;;;;;;7.82;3.72;;;;;;;-146.27;92.29;83227.97;5047836;28;20370;-69
2023/05/31 02:51:14;;;;;;;10.07;4.40;;;;;;;-146.27;92.60;83270.16;5053071;28;20060;-69
2023/05/31 02:53:40;;;;;;;8.57;3.72;;;;;;;-146.27;92.32;83236.00;5061196;28;20384;-69
2023/05/31 02:56:05;;;;;;;6.25;4.40;;;;;;;-146.27;91.55;83227.97;5067487;28;20090;-72
2023/05/31 02:58:30;;;;;;;13.32;4.38;;;;;;;-146.27;91.69;83248.06;5053648;28;20104;-70
2023/05/31 03:00:56;;;;;;;9.32;5.18;;;;;;;-146.27;91.94;83284.22;5049079;28;20022;-70
2023/05/31 03:03:21;;;;;;;9.70;4.05;;;;;;;-146.27;92.33;83266.16;5046350;28;20063;-70
2023/05/31 03:05:47;;;;;;;7.13;4.18;;;;;;;-146.27;92.15;83244.03;5053344;28;20032;-70
2023/05/31 03:08:12;;;;;;;7.13;4.15;;;;;;;-146.27;92.11;83274.19;5050525;28;20032;-70
2023/05/31 03:10:38;;;;;;;10.30;4.00;;;;;;;-146.27;91.95;83292.28;5047238;28;20043;-70
2023/05/31 03:13:03;;;;;;;8.68;4.22;;;;;;;-146.27;92.73;83280.22;5050997;28;20147;-70
2023/05/31 03:15:29;;;;;;;8.85;4.60;;;;;;;-146.27;92.58;83288.25;5052276;28;20435;-70
2023/05/31 03:17:55;;;;;;;7.50;4.75;;;;;;;-146.27;92.42;83256.09;5042707;28;20469;-71
2023/05/31 03:20:20;;;;;;;8.10;4.10;;;;;;;-146.27;92.12;83284.22;5046122;28;20393;-70
2023/05/31 03:22:46;;;;;;;8.15;4.68;;;;;;;-146.27;92.28;83316.38;5038193;28;20021;-71
2023/05/31 03:25:11;;;;;;;11.82;5.13;;;;;;;-146.27;92.64;83284.22;5051940;28;20435;-70
2023/05/31 03:27:37;;;;;;;7.63;3.92;;;;;;;-146.27;92.92;83314.38;5050869;28;20608;-70
2023/05/31 03:30:02;;;;;;;10.48;4.15;;;;;;;-146.27;92.68;83316.38;5052127;28;20036;-70
2023/05/31 03:32:28;;;;;;;9.13;4.28;;;;;;;-146.27;92.65;83332.44;5051446;28;20025;-70
2023/05/31 03:34:53;;;;;;;10.18;4.55;;;;;;;-146.27;92.66;83308.34;5051669;28;20171;-70
2023/05/31 03:37:19;;;;;;;9.43;4.45;;;;;;;-146.27;92.79;83324.41;5048294;28;20444;-70
2023/05/31 03:39:44;;;;;;;10.30;4.93;;;;;;;-146.27;92.93;83282.22;5040806;28;20032;-70
2023/05/31 03:42:10;;;;;;;8.43;5.00;;;;;;;-146.27;92.76;83312.34;5036036;28;20025;-71
2023/05/31 03:44:35;;;;;;;9.50;4.57;;;;;;;-146.27;92.29;83308.34;5062775;28;20460;-70
2023/05/31 03:47:01;;;;;;;7.97;4.13;;;;;;;-146.27;92.90;83294.28;5066592;28;20021;-70
2023/05/31 03:49:26;;;;;;;9.50;3.80;;;;;;;-146.27;93.08;83328.44;5051230;28;20748;-71
2023/05/31 03:51:51;;;;;;;7.35;4.53;;;;;;;-146.27;93.19;83320.41;5051641;28;20025;-70
2023/05/31 03:54:17;;;;;;;7.35;4.28;;;;;;;-146.27;92.61;83326.44;5050051;28;20480;-70
2023/05/31 03:56:42;;;;;;;8.38;3.85;;;;;;;-146.27;92.15;83324.41;5052092;28;20033;-70
2023/05/31 03:59:08;;;;;;;8.20;4.50;;;;;;;-146.27;91.75;83302.31;5051314;28;20083;-70
2023/05/31 04:01:34;;;;;;;8.20;4.70;;;;;;;-146.27;92.95;83318.38;5050273;28;20435;-70
2023/05/31 04:03:59;;;;;;;8.15;3.75;;;;;;;-146.27;93.35;83344.50;5053541;28;20447;-70
2023/05/31 04:06:26;;;;;;;8.57;4.60;;;;;;;-146.27;93.44;83340.50;5051176;28;20051;-69
2023/05/31 04:08:52;;;;;;;10.00;4.53;;;;;;;-146.27;93.69;83288.25;5043535;28;20021;-69
2023/05/31 04:11:17;;;;;;;7.13;4.45;;;;;;;-146.27;93.38;83294.28;5044837;28;20039;-70
2023/05/31 04:13:43;;;;;;;7.32;4.78;;;;;;;-146.27;93.63;83300.31;5055249;28;20029;-69
2023/05/31 04:16:08;;;;;;;7.57;4.60;;;;;;;-146.27;94.02;83324.41;5051840;28;20102;-70
2023/05/31 04:18:34;;;;;;;14.68;4.55;;;;;;;-146.27;93.90;83306.34;5052817;28;20021;-69
2023/05/31 04:20:59;;;;;;;10.18;4.30;;;;;;;-146.27;94.14;83304.31;5044662;28;20060;-69
2023/05/31 04:23:24;;;;;;;10.52;4.82;;;;;;;-146.27;93.83;83292.28;5044902;28;20119;-69
2023/05/31 04:25:50;;;;;;;12.23;5.60;;;;;;;-146.27;94.16;83260.13;5048582;28;20742;-68
2023/05/31 04:28:16;;;;;;;11.68;5.63;;;;;;;-146.27;93.73;83272.19;5041895;28;20024;-70
2023/05/31 04:30:41;;;;;;;12.40;5.03;;;;;;;-146.27;94.01;83264.13;5050669;28;20056;-70
2023/05/31 04:33:07;;;;;;;10.70;4.97;;;;;;;-146.27;93.79;83302.31;5050125;28;20117;-69
2023/05/31 04:35:33;;;;;;;8.05;4.55;;;;;;;-146.27;93.89;83260.13;5051411;28;20029;-68
2023/05/31 04:37:59;;;;;;;9.77;5.05;;;;;;;-146.27;94.15;83248.06;5049535;28;20120;-71
2023/05/31 04:40:31;;;;;;;10.77;5.18;;;;;;;-146.27;94.15;83236.00;5049929;28;20217;-70
2023/05/31 04:43:03;;;;;;;10.57;5.30;;;;;;;-146.27;94.30;83242.03;5050597;28;20013;-70
2023/05/31 04:45:29;;;;;;;9.98;5.20;;;;;;;-146.27;94.31;83207.88;5051271;28;20028;-70
2023/05/31 04:47:55;;;;;;;11.55;5.70;;;;;;;-146.27;94.08;83179.75;5048301;28;20369;-70
2023/05/31 04:50:20;;;;;;;9.52;5.55;;;;;;;-146.27;94.47;83199.84;5045592;28;20033;-70
2023/05/31 04:52:46;;;;;;;13.40;5.00;;;;;;;-146.27;94.73;83179.75;5045000;28;20107;-70
2023/05/31 04:55:12;;;;;;;10.60;4.63;;;;;;;-146.27;94.27;83173.72;5047136;28;20520;-70
2023/05/31 04:57:38;;;;;;;12.60;5.28;;;;;;;-146.27;94.25;83183.78;5042452;28;20154;-70
2023/05/31 05:00:10;;;;;;;10.55;5.90;;;;;;;-146.27;94.65;83151.63;5040332;28;20380;-70
2023/05/31 05:02:36;;;;;;;10.00;5.47;;;;;;;-146.27;95.06;83147.59;5054130;28;20602;-70
2023/05/31 05:05:03;;;;;;;13.70;6.55;;;;;;;-146.27;95.21;83157.66;5048414;28;20082;-71
2023/05/31 05:07:29;;;;;;;11.38;5.80;;;;;;;-146.27;95.67;83167.69;5047908;28;20028;-71
2023/05/31 05:09:54;;;;;;;11.57;5.72;;;;;;;-146.27;95.98;83137.56;5053223;28;20104;-70
2023/05/31 05:12:20;;;;;;;10.15;5.65;;;;;;;-146.27;96.19;83095.38;5037734;28;20111;-69
2023/05/31 05:14:45;;;;;;;10.95;5.45;;;;;;;-146.27;96.42;83117.47;5055465;28;20032;-70
2023/05/31 05:17:11;;;;;;;8.48;5.88;;;;;;;-146.27;96.17;83081.31;5041481;28;20033;-69
2023/05/31 05:19:36;;;;;;;10.57;6.03;;;;;;;-146.27;96.08;83087.31;5036610;28;20017;-70
2023/05/31 05:22:01;;;;;;;13.32;5.75;;;;;;;-146.27;96.27;83111.44;5039660;28;20063;-71
2023/05/31 05:24:27;;;;;;;12.45;5.97;;;;;;;-146.27;96.26;83103.41;5034400;28;20497;-69
2023/05/31 05:26:52;;;;;;;14.38;6.60;;;;;;;-146.27;95.88;83065.22;5031064;28;20517;-68
2023/05/31 05:29:19;;;;;;;10.50;5.63;;;;;;;-146.27;95.72;83079.28;5036618;28;20379;-69
2023/05/31 05:31:44;;;;;;;11.68;5.65;;;;;;;-146.27;95.74;83079.28;5042588;28;20051;-68
2023/05/31 05:34:10;;;;;;;11.23;6.65;;;;;;;-146.27;95.25;83041.13;5033678;28;20119;-69
2023/05/31 05:36:37;;;;;;;12.23;6.40;;;;;;;-146.27;95.41;83045.13;5032328;28;20041;-69
2023/05/31 05:39:06;;;;;;;17.23;6.53;;;;;;;-146.27;95.73;83006.97;5031230;28;20032;-69
2023/05/31 05:41:31;;;;;;;14.25;7.10;;;;;;;-146.27;94.75;83019.03;5042738;28;20087;-71
2023/05/31 05:43:57;;;;;;;17.73;7.30;;;;;;;-146.27;94.68;83002.94;5055596;28;20651;-68
2023/05/31 05:46:23;;;;;;;12.60;6.35;;;;;;;-146.27;94.63;82978.84;5046237;28;20032;-69
2023/05/31 05:48:48;;;;;;;12.80;6.78;;;;;;;-146.27;94.60;82950.72;5054536;28;20040;-70
2023/05/31 05:51:14;;;;;;;16.38;6.85;;;;;;;-146.27;94.25;82958.75;5049492;28;20024;-68
2023/05/31 05:53:39;;;;;;;14.95;7.57;;;;;;;-146.27;93.71;82924.59;5058482;28;20020;-67
2023/05/31 05:56:05;;;;;;;13.23;7.03;;;;;;;-146.27;93.17;82942.66;5052906;28;20032;-71
2023/05/31 05:58:31;;;;;;;14.90;7.53;;;;;;;-146.27;92.87;82920.56;5053391;28;20037;-70
2023/05/31 06:00:56;;;;;;;12.50;7.13;;;;;;;-146.27;92.71;82920.56;5044312;28;20101;-74
2023/05/31 06:03:23;;;;;;;15.07;6.97;;;;;;;-146.27;92.67;82894.47;5040239;28;20049;-74
2023/05/31 06:05:48;;;;;;;15.73;8.23;;;;;;;-146.27;92.00;82906.50;5045676;28;20021;-72
2023/05/31 06:08:14;;;;;;;14.13;7.50;;;;;;;-146.27;91.90;82890.44;5046286;28;20369;-73
2023/05/31 06:10:40;;;;;;;14.07;7.47;;;;;;;-146.27;92.01;82874.38;5062468;28;20021;-72
2023/05/31 06:13:06;;;;;;;14.70;7.70;;;;;;;-146.27;91.35;82814.09;5049888;28;20171;-70
2023/05/31 06:15:32;;;;;;;14.20;7.82;;;;;;;-146.27;91.22;82824.13;5052277;28;20035;-72
2023/05/31 06:17:58;;;;;;;15.02;8.10;;;;;;;-146.27;90.95;82830.16;5051740;28;20420;-72
2023/05/31 06:20:23;;;;;;;13.50;8.00;;;;;;;-146.27;90.04;82832.19;5057288;28;20075;-72
2023/05/31 06:22:51;;;;;;;15.85;7.53;;;;;;;-146.27;89.47;82810.06;5054233;28;20028;-71
2023/05/31 06:25:17;;;;;;;16.90;7.25;;;;;;;-146.27;89.34;82785.97;5045891;28;20067;-71
2023/05/31 06:27:45;;;;;;;15.43;7.70;;;;;;;-146.27;89.36;82796.00;5055928;28;20472;-69
2023/05/31 06:30:12;;;;;;;16.42;7.80;;;;;;;-146.27;88.69;82771.91;5046200;28;20555;-71
2023/05/31 06:32:37;;;;;;;14.85;7.97;;;;;;;-146.27;88.40;82737.75;5046098;28;20021;-72
2023/05/31 06:35:03;;;;;;;16.75;8.23;;;;;;;-146.27;88.40;82729.72;5046623;28;20029;-71
2023/05/31 06:37:29;;;;;;;14.45;8.30;;;;;;;-146.27;88.02;82717.66;5049643;28;20025;-71
2023/05/31 06:39:54;;;;;;;16.02;7.97;;;;;;;-146.27;87.29;82707.63;5044834;28;20055;-71
2023/05/31 06:42:21;;;;;;;15.52;7.22;;;;;;;-146.27;87.19;82657.41;5040684;28;20042;-71
2023/05/31 06:44:47;;;;;;;15.60;7.63;;;;;;;-146.27;87.10;82669.44;5042468;28;20522;-71
2023/05/31 06:47:13;;;;;;;14.20;7.90;;;;;;;-146.27;86.47;82653.38;5052705;28;20021;-71
2023/05/31 06:49:39;;;;;;;18.98;8.60;;;;;;;-146.27;86.80;82713.66;5047371;28;20052;-71
2023/05/31 06:52:05;;;;;;;15.65;7.78;;;;;;;-146.27;86.27;82701.59;5035748;28;20033;-72
2023/05/31 06:54:35;;;;;;;16.92;7.22;;;;;;;-146.27;85.83;82671.47;5047529;28;20089;-71
2023/05/31 06:57:02;;;;;;;15.88;7.28;;;;;;;-146.27;85.48;82653.38;5041579;28;20385;-72
2023/05/31 06:59:27;;;;;;;17.85;7.70;;;;;;;-146.27;84.07;82627.25;5041435;28;20021;-71
2023/05/31 07:01:54;;;;;;;17.13;8.45;;;;;;;-146.27;84.03;82601.16;5038849;28;20025;-71
2023/05/31 07:04:19;;;;;;;13.50;7.93;;;;;;;-146.27;83.98;82564.97;5052940;28;20063;-72
2023/05/31 07:06:45;;;;;;;18.23;8.43;;;;;;;-146.27;83.75;82560.97;5053046;28;20037;-72
2023/05/31 07:09:10;;;;;;;15.23;8.40;;;;;;;-146.27;83.83;82538.88;5041022;28;20481;-71
2023/05/31 07:11:40;;;;;;;14.05;7.57;;;;;;;-146.27;83.84;82544.91;5043518;28;20044;-72
2023/05/31 07:14:05;;;;;;;17.35;8.55;;;;;;;-146.27;82.69;82496.69;5031149;28;20108;-71
2023/05/31 07:16:31;;;;;;;15.15;7.85;;;;;;;-146.27;82.95;82520.78;5039022;28;20228;-72
2023/05/31 07:18:57;;;;;;;18.05;8.38;;;;;;;-146.27;82.10;82500.69;5045144;28;20389;-73
2023/05/31 07:21:22;;;;;;;12.85;7.85;;;;;;;-146.27;82.69;82544.91;5035984;28;20075;-73
2023/05/31 07:23:48;;;;;;;14.23;7.28;;;;;;;-146.27;83.36;82486.63;5035062;28;20469;-72
2023/05/31 07:26:15;;;;;;;14.95;7.45;;;;;;;-146.27;83.18;82488.66;5047505;28;20036;-72
2023/05/31 07:28:41;;;;;;;16.85;8.02;;;;;;;-146.27;83.26;82448.47;5038753;28;20029;-73
2023/05/31 07:31:07;;;;;;;16.90;7.63;;;;;;;-146.27;83.66;82444.44;5042668;28;20403;-73
2023/05/31 07:33:32;;;;;;;20.05;7.35;;;;;;;-146.27;82.62;82424.38;5045562;28;20021;-73
2023/05/31 07:35:59;;;;;;;12.93;6.72;;;;;;;-146.27;82.58;82344.00;5046434;28;20115;-71
2023/05/31 07:38:25;;;;;;;19.52;7.45;;;;;;;-146.27;80.83;82376.16;5044420;28;20523;-72
2023/05/31 07:40:50;;;;;;;11.15;7.47;;;;;;;-146.27;81.11;82319.91;5042954;28;20114;-71
2023/05/31 07:43:16;;;;;;;18.73;7.43;;;;;;;-146.27;79.86;82291.78;5044532;28;20017;-73
2023/05/31 07:45:41;;;;;;;13.88;7.68;;;;;;;-146.27;79.66;82311.88;5051825;28;20024;-71
2023/05/31 07:48:07;;;;;;;13.18;7.05;;;;;;;-146.27;78.81;82323.91;5052395;28;20099;-71
2023/05/31 07:50:33;;;;;;;12.93;7.05;;;;;;;-146.27;79.74;82259.66;5048066;28;20040;-71
2023/05/31 07:52:58;;;;;;;11.32;6.05;;;;;;;-146.27;78.86;82225.50;5049541;28;20468;-71
2023/05/31 07:55:23;;;;;;;12.25;6.65;;;;;;;-146.27;79.31;82203.41;5043443;28;20052;-71
2023/05/31 07:57:49;;;;;;;13.23;6.70;;;;;;;-146.27;78.68;82247.59;5045769;28;20087;-73
2023/05/31 08:00:14;;;;;;;15.90;6.95;;;;;;;-146.27;79.12;82163.22;5039127;28;20124;-72
2023/05/31 08:02:41;;;;;;;12.75;6.72;;;;;;;-146.27;78.49;82155.19;5047152;28;20029;-73
2023/05/31 08:05:09;;;;;;;14.07;7.10;;;;;;;-146.27;77.69;82121.03;5041079;28;20112;-73
2023/05/31 08:07:35;;;;;;;11.43;7.10;;;;;;;-146.27;76.80;82119.03;5037605;28;20026;-73
2023/05/31 08:10:00;;;;;;;16.25;7.28;;;;;;;-146.27;76.19;82088.91;5035284;28;20025;-73
2023/05/31 08:12:26;;;;;;;10.30;6.05;;;;;;;-146.27;76.12;82050.75;5038524;28;20554;-72
2023/05/31 08:14:51;;;;;;;17.13;7.35;;;;;;;-146.27;76.65;82030.66;5037245;28;20068;-71
2023/05/31 08:17:16;;;;;;;12.23;5.80;;;;;;;-146.27;76.14;82048.72;5032901;28;20021;-72
2023/05/31 08:19:42;;;;;;;12.40;5.82;;;;;;;-146.27;76.21;82028.66;5040850;28;20475;-73
2023/05/31 08:22:07;;;;;;;14.07;6.47;;;;;;;-146.27;75.55;81986.47;5044128;28;20497;-73
2023/05/31 08:24:33;;;;;;;13.93;6.60;;;;;;;-146.27;75.15;81962.34;5035784;28;20334;-68
2023/05/31 08:26:58;;;;;;;10.77;6.00;;;;;;;-146.27;74.72;81954.31;5031511;28;20032;-69
2023/05/31 08:29:24;;;;;;;12.80;5.55;;;;;;;-146.27;74.27;81922.19;5042447;28;20514;-69
2023/05/31 08:31:49;;;;;;;11.85;6.03;;;;;;;-146.27;74.52;81898.09;5050112;28;20464;-73
2023/05/31 08:34:14;;;;;;;13.05;5.50;;;;;;;-146.27;73.95;81821.75;5051048;28;20024;-74
2023/05/31 08:36:40;;;;;;;10.65;5.53;;;;;;;-146.27;73.24;81793.66;5034750;28;20033;-75
2023/05/31 08:39:08;;;;;;;13.05;6.60;;;;;;;-146.27;72.15;81825.78;5030053;28;20049;-73
2023/05/31 08:41:58;;;;;;;11.02;5.72;;;;;;;-146.27;71.47;81817.75;5032613;28;20393;-75
2023/05/31 08:44:23;;;;;;;12.15;6.00;;;;;;;-146.27;70.48;81749.47;5031039;28;20034;-75
2023/05/31 08:46:49;;;;;;;15.95;6.28;;;;;;;-146.27;70.13;81759.50;5036986;28;20202;-73
2023/05/31 08:49:17;;;;;;;12.77;6.60;;;;;;;-146.27;70.30;81757.50;5030508;28;20112;-74
2023/05/31 08:51:48;;;;;;;9.60;5.30;;;;;;;-146.27;69.50;81747.44;5030530;28;20047;-74
2023/05/31 08:54:14;;;;;;;11.02;6.07;;;;;;;-146.27;70.03;81703.25;5043100;28;20534;-75
2023/05/31 08:56:40;;;;;;;12.95;5.55;;;;;;;-146.27;70.72;81683.19;5038465;28;20034;-75
2023/05/31 08:59:11;;;;;;;13.60;5.90;;;;;;;-146.27;70.00;81657.06;5029855;28;20033;-74
2023/05/31 09:01:37;;;;;;;10.15;5.78;;;;;;;-146.27;68.61;81665.09;5030971;28;20442;-73
2023/05/31 09:04:06;;;;;;;12.82;5.75;;;;;;;-146.27;67.79;81655.06;5029495;28;20037;-74
2023/05/31 09:06:33;;;;;;;13.77;5.40;;;;;;;-146.27;67.89;81641.00;5030498;28;20039;-74
2023/05/31 09:09:00;;;;;;;13.52;4.97;;;;;;;-146.27;66.73;81636.97;5043645;28;20024;-75
2023/05/31 09:11:25;;;;;;;13.98;6.18;;;;;;;-146.27;67.85;81592.78;5051549;28;20029;-73
2023/05/31 09:13:51;;;;;;;16.27;5.60;;;;;;;-146.27;68.38;81522.50;5061102;28;20380;-74
2023/05/31 09:16:16;;;;;;;12.75;5.45;;;;;;;-146.27;67.97;81476.31;5039327;28;20020;-74
2023/05/31 09:18:42;;;;;;;9.18;4.88;;;;;;;-146.27;65.85;81448.19;5033358;28;20476;-75
2023/05/31 09:21:12;;;;;;;10.10;5.07;;;;;;;-146.27;65.53;81418.06;5030784;28;20041;-75
2023/05/31 09:23:51;;;;;;;10.57;5.72;;;;;;;-146.27;63.62;81442.16;5030510;28;20017;-74
2023/05/31 09:26:17;;;;;;;11.90;5.68;;;;;;;-146.27;64.64;81424.09;5045237;28;20059;-73
2023/05/31 09:28:51;;;;;;;16.83;5.78;;;;;;;-146.27;63.31;81404.00;5030340;28;20022;-74
2023/05/31 09:31:17;;;;;;;13.10;5.55;;;;;;;-146.27;63.54;81351.78;5030360;28;20033;-74
2023/05/31 09:33:45;;;;;;;12.18;5.05;;;;;;;-146.27;62.68;81303.59;5035016;28;20036;-74
2023/05/31 09:36:12;;;;;;;12.45;5.13;;;;;;;-146.27;62.44;81263.44;5046545;28;20029;-73
2023/05/31 09:38:38;;;;;;;10.60;4.40;;;;;;;-146.27;59.83;81237.31;5031315;28;20056;-73
2023/05/31 09:41:13;;;;;;;9.43;4.88;;;;;;;-146.27;60.01;81259.41;5030434;28;20029;-73
2023/05/31 09:43:43;;;;;;;15.07;5.47;;;;;;;-146.27;58.28;81211.22;5030626;28;20087;-74
2023/05/31 09:46:16;;;;;;;12.13;4.85;;;;;;;-146.27;56.71;81231.31;5036308;28;20021;-73
2023/05/31 09:48:43;;;;;;;17.10;5.72;;;;;;;-146.27;59.08;81231.31;5041089;28;20237;-73
2023/05/31 09:51:10;;;;;;;9.98;5.10;;;;;;;-146.27;57.80;81183.09;5047677;28;20500;-73
2023/05/31 09:53:39;;;;;;;10.82;4.90;;;;;;;-146.27;55.90;81130.88;5032827;28;20032;-74
2023/05/31 09:56:09;;;;;;;10.63;4.28;;;;;;;-146.27;56.15;81074.66;5036489;28;20116;-74
2023/05/31 09:58:34;;;;;;;8.90;4.47;;;;;;;-146.27;55.19;81106.78;5035274;28;20120;-75
2023/05/31 10:01:00;;;;;;;8.52;4.72;;;;;;;-146.27;54.53;81028.47;5041422;28;20128;-74
2023/05/31 10:03:28;;;;;;;9.45;4.25;;;;;;;-146.27;54.26;81056.59;5042393;28;20481;-74
2023/05/31 10:05:53;;;;;;;9.38;4.50;;;;;;;-146.27;53.76;81026.47;5035550;28;20036;-74
2023/05/31 10:08:20;;;;;;;8.32;4.30;;;;;;;-146.27;54.87;80992.31;5044550;28;20025;-75
2023/05/31 10:10:45;;;;;;;8.75;4.40;;;;;;;-146.27;54.53;80954.19;5045064;28;20384;-76
2023/05/31 10:13:14;;;;;;;10.82;5.28;;;;;;;-146.27;52.53;80934.09;5036912;28;20045;-74
2023/05/31 10:15:41;;;;;;;11.77;4.45;;;;;;;-146.27;54.02;80930.06;5031646;28;20060;-71
2023/05/31 10:18:14;;;;;;;8.57;4.30;;;;;;;-146.27;54.25;80901.97;5037166;28;20404;-71
2023/05/31 10:21:06;;;;;;;9.05;4.13;;;;;;;-146.27;51.86;80869.84;5049864;28;20313;-71
2023/05/31 10:23:49;;;;;;;11.98;4.53;;;;;;;-146.27;53.67;80853.78;5037832;28;20041;-72
2023/05/31 10:26:20;;;;;;;15.20;4.63;;;;;;;-146.27;51.51;80821.63;5030876;28;20104;-74
2023/05/31 10:28:58;;;;;;;9.77;4.07;;;;;;;-146.27;50.85;80745.34;5032255;28;20098;-73
2023/05/31 10:31:33;;;;;;;9.07;4.40;;;;;;;-146.27;52.20;80721.25;5033588;28;20033;-75
2023/05/31 10:34:25;;;;;;;9.80;5.47;;;;;;;-146.27;53.32;80695.13;5034630;28;20096;-75
2023/05/31 10:36:53;;;;;;;11.35;5.10;;;;;;;-146.27;51.90;80675.06;5038586;28;20047;-74
2023/05/31 10:39:49;;;;;;;13.15;4.57;;;;;;;-146.27;54.00;80600.75;5038282;28;20032;-73
2023/05/31 10:42:45;;;;;;;12.05;5.07;;;;;;;-146.27;53.19;80568.63;5032603;28;20025;-74
2023/05/31 10:45:10;;;;;;;9.27;4.55;;;;;;;-146.27;50.49;80528.47;5044908;28;20070;-73
2023/05/31 10:47:42;;;;;;;10.85;3.90;;;;;;;-146.27;49.48;80544.53;5035966;28;20029;-74
2023/05/31 10:50:08;;;;;;;8.57;4.68;;;;;;;-146.27;48.53;80576.66;5032801;28;20052;-75
2023/05/31 10:52:33;;;;;;;9.10;4.82;;;;;;;-146.27;49.86;80560.59;5035354;28;20033;-74
2023/05/31 10:55:21;;;;;;;11.20;4.75;;;;;;;-146.27;49.94;80484.31;5033248;28;20017;-74
2023/05/31 10:57:53;;;;;;;9.93;4.20;;;;;;;-146.27;48.96;80450.19;5037902;28;20040;-75
2023/05/31 11:00:20;;;;;;;12.10;4.82;;;;;;;-146.27;49.33;80381.91;5039213;28;20037;-74
2023/05/31 11:02:51;;;;;;;10.43;4.32;;;;;;;-146.27;47.12;80349.78;5034764;28;20052;-74
2023/05/31 11:05:27;;;;;;;11.57;4.85;;;;;;;-146.27;46.52;80395.97;5037497;28;20032;-74
2023/05/31 11:07:54;;;;;;;7.28;4.18;;;;;;;-146.27;47.29;80303.59;5032443;28;20453;-74
2023/05/31 11:10:32;;;;;;;6.57;4.20;;;;;;;-146.27;46.79;80335.72;5033447;28;20032;-74
2023/05/31 11:13:03;;;;;;;16.27;4.18;;;;;;;-146.27;47.33;80267.47;5032489;28;20516;-74